createdAt,value
2018-04-18T00:00:08.997Z,17.20
2018-04-18T00:02:36.507Z,12.53
2018-04-18T00:05:04.011Z,11.43
2018-04-18T00:07:31.526Z,12.40
2018-04-18T00:09:59.074Z,20.37
2018-04-18T00:12:26.618Z,13.37
2018-04-18T00:14:54.126Z,16.23
2018-04-18T00:17:21.624Z,29.93
2018-04-18T00:19:49.162Z,15.20
2018-04-18T00:22:16.662Z,17.87
2018-04-18T00:24:44.186Z,25.70
2018-04-18T00:27:11.694Z,16.37
2018-04-18T00:29:39.186Z,15.07
2018-04-18T00:32:06.712Z,17.83
2018-04-18T00:34:34.211Z,22.40
2018-04-18T00:37:01.742Z,15.80
2018-04-18T00:39:29.233Z,15.53
2018-04-18T00:41:56.730Z,18.43
2018-04-18T00:44:24.245Z,17.10
2018-04-18T00:46:51.729Z,18.50
2018-04-18T00:49:19.237Z,17.07
2018-04-18T00:51:46.827Z,16.57
2018-04-18T00:54:14.738Z,18.50
2018-04-18T00:56:42.297Z,16.40
2018-04-18T00:59:09.799Z,17.20
2018-04-18T01:01:37.336Z,19.60
2018-04-18T01:04:04.834Z,20.07
2018-04-18T01:06:32.324Z,17.73
2018-04-18T01:08:59.859Z,16.63
2018-04-18T01:11:27.353Z,19.87
2018-04-18T01:13:54.845Z,20.37
2018-04-18T01:16:22.384Z,18.90
2018-04-18T01:18:49.880Z,23.87
2018-04-18T01:21:18.296Z,18.77
2018-04-18T01:23:45.819Z,18.93
2018-04-18T01:26:13.327Z,24.20
2018-04-18T01:28:40.835Z,20.57
2018-04-18T01:31:08.356Z,19.37
2018-04-18T01:33:35.860Z,22.77
2018-04-18T01:36:03.357Z,17.43
2018-04-18T01:38:30.877Z,17.60
2018-04-18T01:40:58.435Z,18.70
2018-04-18T01:43:25.933Z,17.93
2018-04-18T01:45:53.457Z,18.57
2018-04-18T01:48:20.948Z,18.93
2018-04-18T01:50:48.462Z,19.53
2018-04-18T01:53:15.991Z,17.03
2018-04-18T01:55:43.487Z,21.13
2018-04-18T01:58:10.974Z,18.57
2018-04-18T02:00:38.528Z,19.60
2018-04-18T02:03:06.063Z,24.63
2018-04-18T02:05:33.629Z,26.73
2018-04-18T02:08:01.146Z,19.03
2018-04-18T02:10:28.643Z,18.30
2018-04-18T02:12:56.833Z,24.13
2018-04-18T02:15:24.388Z,19.90
2018-04-18T02:17:51.882Z,22.70
2018-04-18T02:20:19.377Z,21.03
2018-04-18T02:22:46.893Z,20.17
2018-04-18T02:25:14.384Z,22.13
2018-04-18T02:27:41.916Z,22.50
2018-04-18T02:30:09.514Z,23.03
2018-04-18T02:32:36.949Z,22.43
2018-04-18T02:35:04.450Z,22.37
2018-04-18T02:37:31.982Z,21.23
2018-04-18T02:39:59.482Z,24.07
2018-04-18T02:42:26.982Z,22.27
2018-04-18T02:44:54.498Z,22.17
2018-04-18T02:47:21.996Z,22.20
2018-04-18T02:49:49.506Z,21.77
2018-04-18T02:52:17.036Z,21.57
2018-04-18T02:54:44.541Z,23.23
2018-04-18T02:57:12.042Z,24.80
2018-04-18T02:59:39.574Z,21.67
2018-04-18T03:02:07.074Z,23.13
2018-04-18T03:04:34.571Z,24.00
2018-04-18T03:07:02.107Z,23.93
2018-04-18T03:09:29.605Z,22.70
2018-04-18T03:11:57.106Z,21.83
2018-04-18T03:14:24.625Z,25.33
2018-04-18T03:16:52.121Z,23.87
2018-04-18T03:19:19.612Z,21.90
2018-04-18T03:21:47.184Z,25.80
2018-04-18T03:24:14.672Z,21.33
2018-04-18T03:26:42.156Z,25.00
2018-04-18T03:29:09.734Z,27.10
2018-04-18T03:31:37.234Z,21.20
2018-04-18T03:34:04.721Z,20.70
2018-04-18T03:36:32.239Z,19.20
2018-04-18T03:38:59.728Z,21.47
2018-04-18T03:41:27.217Z,22.10
2018-04-18T03:43:54.746Z,21.60
2018-04-18T03:46:22.234Z,22.20
2018-04-18T03:48:49.742Z,20.73
2018-04-18T03:51:17.276Z,20.33
2018-04-18T03:53:44.992Z,20.60
2018-04-18T03:56:12.494Z,21.80
2018-04-18T03:58:40.032Z,29.27
2018-04-18T04:01:07.525Z,31.80
2018-04-18T04:03:35.013Z,20.87
2018-04-18T04:06:03.542Z,22.30
2018-04-18T04:08:31.034Z,26.00
2018-04-18T04:10:58.528Z,23.77
2018-04-18T04:13:26.045Z,24.37
2018-04-18T04:15:53.547Z,21.73
2018-04-18T04:18:32.950Z,24.67
2018-04-18T04:21:13.181Z,25.83
2018-04-18T04:23:52.499Z,26.27
2018-04-18T04:26:20.009Z,22.50
2018-04-18T04:28:47.496Z,20.10
2018-04-18T04:31:15.018Z,19.33
2018-04-18T04:33:42.574Z,17.20
2018-04-18T04:36:10.072Z,21.17
2018-04-18T04:38:37.597Z,13.47
2018-04-18T04:41:05.099Z,15.93
2018-04-18T04:43:32.589Z,14.70
2018-04-18T04:46:00.126Z,17.10
2018-04-18T04:48:27.630Z,17.47
2018-04-18T04:50:55.146Z,19.50
2018-04-18T04:53:22.661Z,21.47
2018-04-18T04:55:50.156Z,18.07
2018-04-18T04:58:17.649Z,14.63
2018-04-18T05:00:45.169Z,16.80
2018-04-18T05:03:12.682Z,14.70
2018-04-18T05:05:40.185Z,15.67
2018-04-18T05:08:07.705Z,14.50
2018-04-18T05:10:35.202Z,18.90
2018-04-18T05:13:02.690Z,80.67
2018-04-18T05:15:30.208Z,51.00
2018-04-18T05:17:57.703Z,19.37
2018-04-18T05:20:25.202Z,24.00
2018-04-18T05:22:52.729Z,60.07
2018-04-18T05:25:20.229Z,46.73
2018-04-18T05:27:47.766Z,45.20
2018-04-18T05:30:15.301Z,40.20
2018-04-18T05:32:42.799Z,60.20
2018-04-18T05:35:10.300Z,42.47
2018-04-18T05:37:37.945Z,46.07
2018-04-18T05:40:05.449Z,42.60
2018-04-18T05:42:32.961Z,21.23
2018-04-18T05:45:00.498Z,36.53
2018-04-18T05:47:28.018Z,32.97
2018-04-18T05:49:55.516Z,20.60
2018-04-18T05:52:23.058Z,16.70
2018-04-18T05:54:51.134Z,26.23
2018-04-18T05:57:18.620Z,11.70
2018-04-18T05:59:46.139Z,22.47
2018-04-18T06:02:13.631Z,18.63
2018-04-18T06:04:41.127Z,20.90
2018-04-18T06:07:08.657Z,18.70
2018-04-18T06:09:36.172Z,15.70
2018-04-18T06:12:03.666Z,15.17
2018-04-18T06:14:31.193Z,13.53
2018-04-18T06:16:58.689Z,11.40
2018-04-18T06:19:26.461Z,11.43
2018-04-18T06:21:54.006Z,10.07
2018-04-18T06:24:21.505Z,11.63
2018-04-18T06:26:49.009Z,20.87
2018-04-18T06:29:16.529Z,9.27
2018-04-18T06:31:44.028Z,7.87
2018-04-18T06:34:11.553Z,6.33
2018-04-18T06:36:39.077Z,14.43
2018-04-18T06:39:06.577Z,13.80
2018-04-18T06:41:34.075Z,13.50
2018-04-18T06:44:01.591Z,12.13
2018-04-18T06:46:29.087Z,9.27
2018-04-18T06:48:56.580Z,9.40
2018-04-18T06:51:24.113Z,9.43
2018-04-18T06:53:51.615Z,17.53
2018-04-18T06:56:19.150Z,13.67
2018-04-18T06:58:47.657Z,13.17
2018-04-18T07:01:15.170Z,11.17
2018-04-18T07:03:42.661Z,12.63
2018-04-18T07:06:11.141Z,11.73
2018-04-18T07:08:38.744Z,7.33
2018-04-18T07:11:06.239Z,8.10
2018-04-18T07:13:33.755Z,11.20
2018-04-18T07:16:01.246Z,7.93
2018-04-18T07:18:28.728Z,9.10
2018-04-18T07:20:56.243Z,14.13
2018-04-18T07:23:23.737Z,11.30
2018-04-18T07:25:51.231Z,9.63
2018-04-18T07:28:18.747Z,12.40
2018-04-18T07:30:46.241Z,7.70
2018-04-18T07:33:13.721Z,7.72
2018-04-18T07:35:41.250Z,7.00
2018-04-18T07:38:08.735Z,8.98
2018-04-18T07:40:36.235Z,10.10
2018-04-18T07:43:03.747Z,8.77
2018-04-18T07:45:31.235Z,8.25
2018-04-18T07:47:58.733Z,11.32
2018-04-18T07:50:26.249Z,10.05
2018-04-18T07:52:53.741Z,12.30
2018-04-18T07:55:21.241Z,12.23
2018-04-18T07:57:48.766Z,8.25
2018-04-18T08:00:16.262Z,8.88
2018-04-18T08:02:43.750Z,9.23
2018-04-18T08:05:11.275Z,17.05
2018-04-18T08:07:38.765Z,12.10
2018-04-18T08:10:07.137Z,10.18
2018-04-18T08:12:34.695Z,10.68
2018-04-18T08:15:02.178Z,9.38
2018-04-18T08:17:29.664Z,10.63
2018-04-18T08:19:57.193Z,11.27
2018-04-18T08:22:24.912Z,9.00
2018-04-18T08:24:52.411Z,11.27
2018-04-18T08:27:19.991Z,10.73
2018-04-18T08:29:47.488Z,12.23
2018-04-18T08:32:14.983Z,15.05
2018-04-18T08:34:42.509Z,15.35
2018-04-18T08:37:10.003Z,15.10
2018-04-18T08:39:37.506Z,11.23
2018-04-18T08:42:05.029Z,10.05
2018-04-18T08:44:32.535Z,11.98
2018-04-18T08:47:00.042Z,10.35
2018-04-18T08:49:27.563Z,17.52
2018-04-18T08:51:55.062Z,13.95
2018-04-18T08:54:22.563Z,16.37
2018-04-18T08:56:50.090Z,15.60
2018-04-18T08:59:17.596Z,15.23
2018-04-18T09:01:45.096Z,14.95
2018-04-18T09:04:12.626Z,13.07
2018-04-18T09:06:40.125Z,16.40
2018-04-18T09:09:07.625Z,15.50
2018-04-18T09:11:35.158Z,14.25
2018-04-18T09:14:02.660Z,13.18
2018-04-18T09:16:30.161Z,14.70
2018-04-18T09:18:57.709Z,14.25
2018-04-18T09:21:25.218Z,21.02
2018-04-18T09:23:52.722Z,12.63
2018-04-18T09:26:20.249Z,16.77
2018-04-18T09:28:47.750Z,16.60
2018-04-18T09:31:15.256Z,19.48
2018-04-18T09:33:42.802Z,20.73
2018-04-18T09:36:10.306Z,15.90
2018-04-18T09:38:37.800Z,15.27
2018-04-18T09:41:05.320Z,21.75
2018-04-18T09:43:32.838Z,14.15
2018-04-18T09:46:00.345Z,14.95
2018-04-18T09:48:27.863Z,18.10
2018-04-18T09:50:55.366Z,16.67
2018-04-18T09:53:22.853Z,14.57
2018-04-18T09:55:50.384Z,10.90
2018-04-18T09:58:17.901Z,14.07
2018-04-18T10:00:51.053Z,11.20
2018-04-18T10:03:18.558Z,10.93
2018-04-18T10:05:46.044Z,9.23
2018-04-18T10:08:13.570Z,8.13
2018-04-18T10:10:41.055Z,9.60
2018-04-18T10:13:08.553Z,10.38
2018-04-18T10:15:36.072Z,9.57
2018-04-18T10:18:03.567Z,9.93
2018-04-18T10:20:31.050Z,9.80
2018-04-18T10:22:58.594Z,8.10
2018-04-18T10:25:26.083Z,11.50
2018-04-18T10:27:53.581Z,13.03
2018-04-18T10:30:22.091Z,9.07
2018-04-18T10:32:49.582Z,8.23
2018-04-18T10:35:17.077Z,7.30
2018-04-18T10:37:44.595Z,9.37
2018-04-18T10:40:12.085Z,10.90
2018-04-18T10:42:39.578Z,12.43
2018-04-18T10:45:07.108Z,10.33
2018-04-18T10:47:34.610Z,10.73
2018-04-18T10:50:02.099Z,10.47
2018-04-18T10:52:29.621Z,13.97
2018-04-18T10:54:57.126Z,11.63
2018-04-18T10:57:24.622Z,14.87
2018-04-18T10:59:52.303Z,9.67
2018-04-18T11:02:19.793Z,10.60
2018-04-18T11:04:47.284Z,12.97
2018-04-18T11:07:14.805Z,10.10
2018-04-18T11:09:42.340Z,13.20
2018-04-18T11:12:09.848Z,10.80
2018-04-18T11:14:37.382Z,14.60
2018-04-18T11:17:04.878Z,11.87
2018-04-18T11:19:32.375Z,12.13
2018-04-18T11:21:59.894Z,12.07
2018-04-18T11:24:27.393Z,16.33
2018-04-18T11:26:54.901Z,14.10
2018-04-18T11:29:22.425Z,11.83
2018-04-18T11:31:49.914Z,12.80
2018-04-18T11:34:17.930Z,13.77
2018-04-18T11:36:45.457Z,13.40
2018-04-18T11:39:12.958Z,12.77
2018-04-18T11:41:40.453Z,9.67
2018-04-18T11:44:07.977Z,9.63
2018-04-18T11:46:35.471Z,10.67
2018-04-18T11:49:02.979Z,12.33
2018-04-18T11:51:30.506Z,16.00
2018-04-18T11:53:58.006Z,12.00
2018-04-18T11:56:25.562Z,14.60
2018-04-18T11:58:53.111Z,12.17
2018-04-18T12:01:20.642Z,13.37
2018-04-18T12:03:48.147Z,12.90
2018-04-18T12:06:15.673Z,12.97
2018-04-18T12:08:43.175Z,12.47
2018-04-18T12:11:10.681Z,13.87
2018-04-18T12:13:38.204Z,12.37
2018-04-18T12:16:05.694Z,18.17
2018-04-18T12:18:33.199Z,11.43
2018-04-18T12:21:00.744Z,12.23
2018-04-18T12:23:28.236Z,13.33
2018-04-18T12:25:55.732Z,15.97
2018-04-18T12:28:23.245Z,14.90
2018-04-18T12:30:50.807Z,12.63
2018-04-18T12:33:18.268Z,13.93
2018-04-18T12:35:45.793Z,18.10
2018-04-18T12:38:13.293Z,12.90
2018-04-18T12:40:40.798Z,16.73
2018-04-18T12:43:08.318Z,13.30
2018-04-18T12:45:35.853Z,13.23
2018-04-18T12:48:03.345Z,16.67
2018-04-18T12:50:30.984Z,16.17
2018-04-18T12:52:58.490Z,15.03
2018-04-18T12:55:25.981Z,15.60
2018-04-18T12:57:54.465Z,12.83
2018-04-18T13:00:21.966Z,13.33
2018-04-18T13:02:49.465Z,12.53
2018-04-18T13:05:16.993Z,13.87
2018-04-18T13:07:44.500Z,18.07
2018-04-18T13:10:11.997Z,17.03
2018-04-18T13:12:39.517Z,15.40
2018-04-18T13:15:07.014Z,17.03
2018-04-18T13:17:34.504Z,17.07
2018-04-18T13:20:02.038Z,14.73
2018-04-18T13:22:29.533Z,15.67
2018-04-18T13:24:57.024Z,17.07
2018-04-18T13:27:24.556Z,18.67
2018-04-18T13:29:52.077Z,25.00
2018-04-18T13:32:19.578Z,16.10
2018-04-18T13:34:47.143Z,18.80
2018-04-18T13:37:14.645Z,14.93
2018-04-18T13:39:42.146Z,15.83
2018-04-18T13:42:09.661Z,13.17
2018-04-18T13:44:37.155Z,12.17
2018-04-18T13:47:04.645Z,14.40
2018-04-18T13:49:32.169Z,13.27
2018-04-18T13:51:59.657Z,14.33
2018-04-18T13:54:27.154Z,12.77
2018-04-18T13:56:54.668Z,14.07
2018-04-18T13:59:22.221Z,15.40
2018-04-18T14:01:49.856Z,11.03
2018-04-18T14:04:17.401Z,16.40
2018-04-18T14:06:44.893Z,12.43
2018-04-18T14:09:12.391Z,9.10
2018-04-18T14:11:39.909Z,12.70
2018-04-18T14:14:07.405Z,10.20
2018-04-18T14:16:34.906Z,12.73
2018-04-18T14:19:02.427Z,11.90
2018-04-18T14:21:29.921Z,11.53
2018-04-18T14:23:57.530Z,13.60
2018-04-18T14:26:25.066Z,16.23
2018-04-18T14:28:52.554Z,10.73
2018-04-18T14:31:20.044Z,11.70
2018-04-18T14:33:47.590Z,14.70
2018-04-18T14:36:15.160Z,9.63
2018-04-18T14:38:43.666Z,15.90
2018-04-18T14:41:11.214Z,9.73
2018-04-18T14:43:38.706Z,10.30
2018-04-18T14:46:06.288Z,13.27
2018-04-18T14:48:33.807Z,9.60
2018-04-18T14:51:01.297Z,11.43
2018-04-18T14:53:28.789Z,15.70
2018-04-18T14:55:56.322Z,12.10
2018-04-18T14:58:23.809Z,9.23
2018-04-18T15:00:51.301Z,11.50
2018-04-18T15:03:18.831Z,13.57
2018-04-18T15:05:47.214Z,12.90
2018-04-18T15:08:14.701Z,9.97
2018-04-18T15:10:42.241Z,12.97
2018-04-18T15:13:09.729Z,9.27
2018-04-18T15:15:37.213Z,7.83
2018-04-18T15:18:04.758Z,9.13
2018-04-18T15:20:32.268Z,12.10
2018-04-18T15:22:59.757Z,9.87
2018-04-18T15:25:27.272Z,7.97
2018-04-18T15:27:54.780Z,9.33
2018-04-18T15:30:22.269Z,8.43
2018-04-18T15:32:49.792Z,7.63
2018-04-18T15:35:17.294Z,8.00
2018-04-18T15:37:44.803Z,7.87
2018-04-18T15:40:12.329Z,10.87
2018-04-18T15:42:39.830Z,9.90
2018-04-18T15:45:07.322Z,7.93
2018-04-18T15:47:34.839Z,13.17
2018-04-18T15:50:02.334Z,10.87
2018-04-18T15:52:29.870Z,6.33
2018-04-18T15:54:57.395Z,10.33
2018-04-18T15:57:24.913Z,9.53
2018-04-18T15:59:52.397Z,6.37
2018-04-18T16:02:19.905Z,6.93
2018-04-18T16:04:47.393Z,11.93
2018-04-18T16:07:14.876Z,9.77
2018-04-18T16:09:42.394Z,6.17
2018-04-18T16:12:09.900Z,8.90
2018-04-18T16:14:37.397Z,13.53
2018-04-18T16:17:04.910Z,8.77
2018-04-18T16:19:32.425Z,14.70
2018-04-18T16:21:59.913Z,8.03
2018-04-18T16:24:27.451Z,10.50
2018-04-18T16:26:54.950Z,5.97
2018-04-18T16:29:34.338Z,7.90
2018-04-18T16:32:01.823Z,6.47
2018-04-18T16:34:29.317Z,15.73
2018-04-18T16:36:56.833Z,9.67
2018-04-18T16:39:24.327Z,6.70
2018-04-18T16:41:51.819Z,9.97
2018-04-18T16:44:20.390Z,8.23
2018-04-18T16:46:47.887Z,7.37
2018-04-18T16:49:15.382Z,6.23
2018-04-18T16:51:42.896Z,7.50
2018-04-18T16:54:10.385Z,6.43
2018-04-18T16:56:37.878Z,7.63
2018-04-18T16:59:05.392Z,8.13
2018-04-18T17:01:32.881Z,6.43
2018-04-18T17:04:00.404Z,8.70
2018-04-18T17:06:28.024Z,8.57
2018-04-18T17:08:55.517Z,5.97
2018-04-18T17:11:23.006Z,6.90
2018-04-18T17:13:50.540Z,15.77
2018-04-18T17:16:18.034Z,4.70
2018-04-18T17:18:45.518Z,7.57
2018-04-18T17:21:13.056Z,12.13
2018-04-18T17:23:40.550Z,6.70
2018-04-18T17:26:08.044Z,7.60
2018-04-18T17:28:35.561Z,9.27
2018-04-18T17:31:03.046Z,5.80
2018-04-18T17:33:30.557Z,7.67
2018-04-18T17:35:58.078Z,7.20
2018-04-18T17:38:25.583Z,9.37
2018-04-18T17:40:53.076Z,8.47
2018-04-18T17:43:20.624Z,13.23
2018-04-18T17:45:48.122Z,10.03
2018-04-18T17:48:15.639Z,8.73
2018-04-18T17:50:43.171Z,9.00
2018-04-18T17:53:10.668Z,7.23
2018-04-18T17:55:38.209Z,9.73
2018-04-18T17:58:06.673Z,11.30
2018-04-18T18:00:34.190Z,4.77
2018-04-18T18:03:01.689Z,11.97
2018-04-18T18:05:29.225Z,9.00
2018-04-18T18:07:56.726Z,11.13
2018-04-18T18:10:24.230Z,12.00
2018-04-18T18:12:51.745Z,9.13
2018-04-18T18:15:19.295Z,9.10
2018-04-18T18:17:46.782Z,7.30
2018-04-18T18:20:14.298Z,19.00
2018-04-18T18:22:41.802Z,15.53
2018-04-18T18:25:09.289Z,12.43
2018-04-18T18:27:36.863Z,11.80
2018-04-18T18:30:04.362Z,9.37
2018-04-18T18:32:31.865Z,12.33
2018-04-18T18:34:59.406Z,7.27
2018-04-18T18:37:26.893Z,10.00
2018-04-18T18:39:54.381Z,11.40
2018-04-18T18:42:21.888Z,7.57
2018-04-18T18:44:49.381Z,12.63
2018-04-18T18:47:16.865Z,8.23
2018-04-18T18:49:44.386Z,10.73
2018-04-18T18:52:11.952Z,11.70
2018-04-18T18:54:39.449Z,10.63
2018-04-18T18:57:07.020Z,21.13
2018-04-18T18:59:34.526Z,15.87
2018-04-18T19:02:02.031Z,23.63
2018-04-18T19:04:29.571Z,14.30
2018-04-18T19:06:57.082Z,10.20
2018-04-18T19:09:24.564Z,9.43
2018-04-18T19:11:52.082Z,10.37
2018-04-18T19:14:19.582Z,10.73
2018-04-18T19:16:47.128Z,9.20
2018-04-18T19:19:15.606Z,15.33
2018-04-18T19:21:43.169Z,16.87
2018-04-18T19:24:10.658Z,15.43
2018-04-18T19:26:38.173Z,9.57
2018-04-18T19:29:05.661Z,11.43
2018-04-18T19:31:34.097Z,9.67
2018-04-18T19:34:01.613Z,17.20
2018-04-18T19:36:29.108Z,11.17
2018-04-18T19:38:56.597Z,16.97
2018-04-18T19:41:24.133Z,11.17
2018-04-18T19:43:52.545Z,10.73
2018-04-18T19:46:20.049Z,13.53
2018-04-18T19:48:47.581Z,11.17
2018-04-18T19:51:15.073Z,11.00
2018-04-18T19:53:42.695Z,8.90
2018-04-18T19:56:10.275Z,12.13
2018-04-18T19:58:37.857Z,11.13
2018-04-18T20:01:05.368Z,10.87
2018-04-18T20:03:32.876Z,12.33
2018-04-18T20:06:00.559Z,16.83
2018-04-18T20:08:28.460Z,21.43
2018-04-18T20:10:56.535Z,19.53
2018-04-18T20:13:24.272Z,18.50
2018-04-18T20:15:52.218Z,16.57
2018-04-18T20:18:20.901Z,21.80
2018-04-18T20:20:48.607Z,17.20
2018-04-18T20:23:17.182Z,21.80
2018-04-18T20:25:44.732Z,16.43
2018-04-18T20:28:12.247Z,20.30
2018-04-18T20:30:39.774Z,25.33
2018-04-18T20:33:07.299Z,21.63
2018-04-18T20:35:34.807Z,15.73
2018-04-18T20:38:02.325Z,24.63
2018-04-18T20:40:29.870Z,17.53
2018-04-18T20:42:58.242Z,18.73
2018-04-18T20:45:25.753Z,22.93
2018-04-18T20:47:53.279Z,22.27
2018-04-18T20:50:20.777Z,26.17
2018-04-18T20:52:48.268Z,23.27
2018-04-18T20:55:15.822Z,23.97
2018-04-18T20:57:43.321Z,20.03
2018-04-18T21:00:10.878Z,26.50
2018-04-18T21:02:38.402Z,18.53
2018-04-18T21:05:05.902Z,23.53
2018-04-18T21:07:33.426Z,34.73
2018-04-18T21:10:00.960Z,27.00
2018-04-18T21:12:28.457Z,25.10
2018-04-18T21:14:55.941Z,24.30
2018-04-18T21:17:23.470Z,28.03
2018-04-18T21:19:50.958Z,30.10
2018-04-18T21:22:18.451Z,23.10
2018-04-18T21:24:45.978Z,19.73
2018-04-18T21:27:13.482Z,24.90
2018-04-18T21:29:40.992Z,28.20
2018-04-18T21:32:08.516Z,17.70
2018-04-18T21:34:36.014Z,23.50
2018-04-18T21:37:03.509Z,22.20
2018-04-18T21:39:31.028Z,20.03
2018-04-18T21:41:58.532Z,24.13
2018-04-18T21:44:26.035Z,27.63
2018-04-18T21:46:53.567Z,30.00
2018-04-18T21:49:21.067Z,22.13
2018-04-18T21:51:48.609Z,23.30
2018-04-18T21:54:16.137Z,24.40
2018-04-18T21:56:43.640Z,24.40
2018-04-18T21:59:11.142Z,25.13
2018-04-18T22:13:00.168Z,21.57
2018-04-18T22:15:27.666Z,22.10
2018-04-18T22:17:55.167Z,17.60
2018-04-18T22:20:22.686Z,19.50
2018-04-18T22:22:50.188Z,21.30
2018-04-18T22:25:17.694Z,16.53
2018-04-18T22:27:45.225Z,21.33
2018-04-18T22:30:24.332Z,23.70
2018-04-18T22:32:51.866Z,32.50
2018-04-18T22:35:19.366Z,26.20
2018-04-18T22:37:46.875Z,24.53
2018-04-18T22:40:14.405Z,20.43
2018-04-18T22:42:41.900Z,17.23
2018-04-18T22:45:09.408Z,28.20
2018-04-18T22:47:36.928Z,25.87
2018-04-18T22:50:04.436Z,25.77
2018-04-18T22:52:31.934Z,26.17
2018-04-18T22:54:59.476Z,20.87
2018-04-18T22:57:26.971Z,21.80
2018-04-18T22:59:54.471Z,22.87
2018-04-18T23:02:21.996Z,26.50
2018-04-18T23:04:49.507Z,25.10
2018-04-18T23:07:16.997Z,30.13
2018-04-18T23:09:44.530Z,34.23
2018-04-18T23:12:12.037Z,33.10
2018-04-18T23:14:39.533Z,29.10
2018-04-18T23:17:07.048Z,31.63
2018-04-18T23:19:34.561Z,31.97
2018-04-18T23:22:02.059Z,27.70
2018-04-18T23:24:29.598Z,24.43
2018-04-18T23:26:57.106Z,24.90
2018-04-18T23:29:24.628Z,23.87
2018-04-18T23:31:52.159Z,26.57
2018-04-18T23:34:19.676Z,25.90
2018-04-18T23:36:47.181Z,26.17
2018-04-18T23:39:14.720Z,24.33
2018-04-18T23:41:42.225Z,25.93
2018-04-18T23:44:09.727Z,26.17
2018-04-18T23:46:37.320Z,31.87
2018-04-18T23:49:04.818Z,23.97
2018-04-18T23:51:32.312Z,32.27
2018-04-18T23:53:59.833Z,25.47
2018-04-18T23:56:27.335Z,28.37
2018-04-18T23:58:54.825Z,29.93
